Time;durP1;ratioP1;P1;durP2;ratioP2;P2;SDS_P1;SDS_P2;PMS_P1;PMS_P2;Temp;Humidity;BMP_temperature;BMP_pressure;BME280_temperature;BME280_humidity;BME280_pressure;Samples;Min_cycle;Max_cycle;Signal;HPM_P1;HPM_P2
2021/12/21 00:00:10;;;;;;;16.13;8.57;;;;;;;2.64;100.00;101142.16;4975879;28;20093;-72
2021/12/21 00:02:56;;;;;;;12.57;8.52;;;;;;;2.31;100.00;101150.09;4976196;28;20027;-72
2021/12/21 00:05:42;;;;;;;14.43;9.07;;;;;;;2.36;100.00;101153.63;4975616;28;20463;-73
2021/12/21 00:08:28;;;;;;;13.75;8.25;;;;;;;2.40;100.00;101155.44;4976800;28;20141;-73
2021/12/21 00:11:15;;;;;;;15.95;9.30;;;;;;;2.21;100.00;101162.78;4976942;28;20026;-72
2021/12/21 00:17:14;;;;;;;14.65;9.18;;;;;;;2.65;100.00;101168.06;4976455;28;20022;-71
2021/12/21 00:20:22;;;;;;;13.68;8.80;;;;;;;2.33;100.00;101173.41;4976625;28;20031;-72
2021/12/21 00:23:29;;;;;;;15.65;9.60;;;;;;;2.44;100.00;101177.06;4976461;28;20368;-72
2021/12/21 00:26:21;;;;;;;14.20;8.30;;;;;;;2.29;100.00;101184.50;4976321;28;20027;-72
2021/12/21 00:29:06;;;;;;;14.98;9.18;;;;;;;2.21;100.00;101179.13;4975748;28;20101;-72
2021/12/21 00:31:52;;;;;;;13.25;9.02;;;;;;;2.71;100.00;101181.16;4976795;28;20034;-73
2021/12/21 00:34:39;;;;;;;13.07;8.82;;;;;;;2.78;100.00;101182.16;4955551;28;20039;-72
2021/12/21 00:37:27;;;;;;;13.48;9.25;;;;;;;2.77;100.00;101185.59;4956907;28;20113;-73
2021/12/21 00:40:13;;;;;;;14.13;9.23;;;;;;;2.55;100.00;101181.66;4955503;29;20089;-72
2021/12/21 00:42:59;;;;;;;13.55;9.43;;;;;;;2.69;100.00;101187.13;4968573;28;20033;-73
2021/12/21 00:45:45;;;;;;;13.18;8.52;;;;;;;2.50;100.00;101192.75;4954479;29;20110;-73
2021/12/21 00:48:33;;;;;;;15.57;8.88;;;;;;;2.36;100.00;101192.41;4956728;29;20027;-72
2021/12/21 00:51:23;;;;;;;13.40;9.30;;;;;;;2.51;100.00;101192.78;4955220;29;20065;-73
2021/12/21 00:54:10;;;;;;;14.32;9.43;;;;;;;2.33;100.00;101194.06;4967766;28;20028;-72
2021/12/21 00:56:55;;;;;;;13.68;8.68;;;;;;;2.36;100.00;101200.19;4955514;29;20035;-73
2021/12/21 00:59:41;;;;;;;13.35;8.63;;;;;;;1.99;100.00;101186.34;4956709;29;20114;-72
2021/12/21 01:02:27;;;;;;;14.82;9.68;;;;;;;2.12;100.00;101194.44;4955772;29;20117;-71
2021/12/21 01:05:21;;;;;;;15.10;9.40;;;;;;;2.06;100.00;101198.59;4956293;29;20312;-73
2021/12/21 01:08:09;;;;;;;16.60;9.35;;;;;;;1.95;100.00;101193.16;4956087;28;20368;-72
2021/12/21 01:11:12;;;;;;;16.50;9.77;;;;;;;2.09;100.00;101201.25;4956239;28;20035;-72
2021/12/21 01:17:01;;;;;;;15.25;9.63;;;;;;;2.22;100.00;101199.00;4956132;28;20027;-73
2021/12/21 01:20:46;;;;;;;14.75;9.43;;;;;;;2.17;100.00;101192.81;4955381;29;20062;-71
2021/12/21 01:35:15;;;;;;;12.60;8.93;;;;;;;2.11;100.00;101197.84;4971375;28;20065;-74
2021/12/21 01:38:28;;;;;;;12.70;9.35;;;;;;;2.35;100.00;101198.44;4961722;28;20031;-73
2021/12/21 01:49:59;;;;;;;14.95;10.20;;;;;;;1.96;100.00;101184.56;4979829;28;20081;-73
2021/12/21 01:52:45;;;;;;;15.30;9.60;;;;;;;2.02;100.00;101186.44;4978422;28;20098;-72
2021/12/21 01:55:31;;;;;;;14.57;9.60;;;;;;;2.29;100.00;101189.66;4978777;28;20475;-73
2021/12/21 01:58:17;;;;;;;16.20;9.57;;;;;;;2.06;100.00;101191.72;4978415;28;20328;-72
2021/12/21 02:01:06;;;;;;;14.73;9.65;;;;;;;2.29;100.00;101195.69;4977705;28;20045;-73
2021/12/21 02:03:52;;;;;;;14.40;9.00;;;;;;;1.99;100.00;101192.41;4978855;28;20027;-73
2021/12/21 02:06:37;;;;;;;15.52;9.60;;;;;;;2.08;100.00;101204.66;4978544;28;20071;-72
2021/12/21 02:09:30;;;;;;;15.23;9.13;;;;;;;2.27;100.00;101197.38;4977915;28;20046;-71
2021/12/21 02:12:18;;;;;;;15.52;9.85;;;;;;;2.00;100.00;101198.41;4964632;28;20034;-72
2021/12/21 02:15:04;;;;;;;13.75;9.48;;;;;;;2.03;100.00;101194.22;4978577;28;20360;-72
2021/12/21 02:20:55;;;;;;;15.15;9.73;;;;;;;2.01;100.00;101192.44;4978810;28;20023;-73
2021/12/21 02:24:11;;;;;;;14.60;10.10;;;;;;;2.06;100.00;101188.25;4977786;28;20085;-72
2021/12/21 02:27:17;;;;;;;14.25;9.20;;;;;;;2.08;100.00;101197.78;4978362;28;20482;-71
2021/12/21 02:30:04;;;;;;;17.20;10.20;;;;;;;1.93;100.00;101196.53;4978089;28;20054;-73
2021/12/21 02:32:50;;;;;;;15.82;9.52;;;;;;;2.08;100.00;101202.94;4976960;28;20032;-73
2021/12/21 02:35:36;;;;;;;14.77;9.82;;;;;;;2.10;100.00;101198.72;4978221;28;20141;-72
2021/12/21 02:38:21;;;;;;;14.40;9.13;;;;;;;2.11;100.00;101203.03;4977854;28;20037;-73
2021/12/21 02:47:32;;;;;;;14.25;9.48;;;;;;;2.20;100.00;101207.53;5078119;23;20435;-71
2021/12/21 02:50:18;;;;;;;12.45;8.50;;;;;;;1.91;100.00;101200.78;4997014;28;20105;-72
2021/12/21 02:53:04;;;;;;;13.65;9.57;;;;;;;1.82;100.00;101206.63;4983786;28;20030;-72
2021/12/21 02:55:50;;;;;;;12.73;8.95;;;;;;;2.19;100.00;101204.09;4982477;28;20497;-73
2021/12/21 02:58:36;;;;;;;16.67;9.75;;;;;;;2.05;100.00;101210.63;4996876;28;20325;-73
2021/12/21 03:01:22;;;;;;;15.98;9.52;;;;;;;1.83;100.00;101213.53;4996755;28;20049;-74
2021/12/21 03:04:08;;;;;;;14.57;8.90;;;;;;;2.42;100.00;101222.72;4996533;28;20049;-73
2021/12/21 03:09:56;;;;;;;13.43;9.32;;;;;;;2.23;100.00;101234.34;4996578;28;20034;-72
2021/12/21 03:15:37;;;;;;;13.68;9.02;;;;;;;2.33;100.00;101231.13;4996809;28;20033;-72
2021/12/21 03:18:22;;;;;;;13.20;9.10;;;;;;;2.42;100.00;101230.47;4997343;28;20026;-73
2021/12/21 03:21:08;;;;;;;14.48;9.50;;;;;;;2.03;100.00;101230.41;4982251;28;20076;-74
2021/12/21 03:23:55;;;;;;;19.00;9.15;;;;;;;2.42;100.00;101239.13;4996897;28;20022;-74
2021/12/21 03:26:41;;;;;;;14.68;9.27;;;;;;;2.51;100.00;101238.44;4981154;28;20451;-72
2021/12/21 03:29:27;;;;;;;12.43;8.80;;;;;;;2.38;100.00;101242.47;4996563;28;20033;-72
2021/12/21 03:32:13;;;;;;;16.17;9.20;;;;;;;2.48;100.00;101238.34;4997377;28;20475;-72
2021/12/21 03:34:58;;;;;;;15.40;8.52;;;;;;;2.23;100.00;101236.03;4981756;28;20042;-72
2021/12/21 03:37:44;;;;;;;11.50;8.45;;;;;;;2.36;100.00;101232.91;4996292;28;20097;-73
2021/12/21 03:40:32;;;;;;;14.73;8.57;;;;;;;2.39;100.00;101233.88;4981886;28;20026;-72
2021/12/21 03:43:18;;;;;;;15.43;9.10;;;;;;;2.00;100.00;101234.59;4995790;28;20344;-71
2021/12/21 03:46:13;;;;;;;14.18;9.18;;;;;;;2.19;100.00;101245.44;4995711;28;20054;-72
2021/12/21 03:49:07;;;;;;;12.38;8.68;;;;;;;2.25;100.00;101250.75;4981683;28;20026;-72
2021/12/21 03:51:53;;;;;;;13.40;9.02;;;;;;;2.11;100.00;101253.81;4995768;28;20370;-72
2021/12/21 03:54:42;;;;;;;12.88;8.77;;;;;;;2.22;100.00;101263.63;4995205;28;20026;-72
2021/12/21 03:57:29;;;;;;;12.25;8.55;;;;;;;2.05;100.00;101272.63;4981475;28;20026;-72
2021/12/21 04:00:18;;;;;;;14.38;8.88;;;;;;;1.79;100.00;101259.88;4996489;28;20367;-73
2021/12/21 04:03:04;;;;;;;13.80;9.15;;;;;;;1.80;100.00;101274.56;4981571;28;20105;-73
2021/12/21 04:05:49;;;;;;;13.35;9.60;;;;;;;1.82;100.00;101271.19;4981845;28;20048;-72
2021/12/21 04:08:35;;;;;;;12.98;8.73;;;;;;;1.55;100.00;101272.16;4995425;28;20037;-72
2021/12/21 04:11:21;;;;;;;13.40;9.52;;;;;;;1.77;100.00;101274.47;4981997;28;20096;-73
2021/12/21 04:14:07;;;;;;;14.95;9.40;;;;;;;1.73;100.00;101278.69;4981934;28;20456;-73
2021/12/21 04:16:53;;;;;;;16.50;10.32;;;;;;;1.61;100.00;101272.31;4981044;28;20065;-73
2021/12/21 04:19:39;;;;;;;12.90;9.40;;;;;;;1.60;100.00;101276.59;4995491;28;20026;-73
2021/12/21 04:22:25;;;;;;;14.23;9.30;;;;;;;1.59;100.00;101279.13;4995213;28;20034;-73
2021/12/21 04:25:12;;;;;;;14.95;9.00;;;;;;;1.64;100.00;101283.59;4995996;28;20081;-72
2021/12/21 04:27:58;;;;;;;17.10;10.13;;;;;;;1.51;100.00;101289.28;4995031;28;20439;-73
2021/12/21 04:30:43;;;;;;;15.55;9.30;;;;;;;1.63;100.00;101296.47;4995404;28;20026;-72
2021/12/21 04:33:30;;;;;;;15.05;9.57;;;;;;;1.80;100.00;101288.34;4995090;28;20034;-72
2021/12/21 04:36:16;;;;;;;13.00;9.20;;;;;;;1.62;100.00;101295.59;4994506;28;20030;-73
2021/12/21 04:39:05;;;;;;;12.18;9.18;;;;;;;1.51;100.00;101293.53;4995213;28;20054;-73
2021/12/21 04:41:51;;;;;;;12.57;9.52;;;;;;;1.46;100.00;101301.19;4995149;28;20030;-72
2021/12/21 04:44:36;;;;;;;16.17;9.65;;;;;;;1.62;100.00;101302.47;4981360;28;20391;-73
2021/12/21 04:47:22;;;;;;;14.82;9.82;;;;;;;1.54;100.00;101311.72;4994756;28;20058;-71
2021/12/21 04:50:09;;;;;;;13.63;9.93;;;;;;;1.70;100.00;101304.44;4995628;28;20041;-73
2021/12/21 04:52:54;;;;;;;13.82;9.20;;;;;;;1.65;100.00;101305.16;4993689;28;20037;-73
2021/12/21 04:55:40;;;;;;;16.75;10.73;;;;;;;1.70;100.00;101321.63;4981516;28;20451;-73
2021/12/21 04:58:26;;;;;;;12.93;9.90;;;;;;;1.86;100.00;101322.09;4995333;28;20041;-72
2021/12/21 05:01:12;;;;;;;15.35;9.70;;;;;;;1.67;100.00;101330.19;4995406;28;20073;-73
2021/12/21 05:03:58;;;;;;;15.77;9.68;;;;;;;1.55;100.00;101335.00;4980614;28;20030;-74
2021/12/21 05:06:43;;;;;;;15.75;11.05;;;;;;;1.61;100.00;101342.03;4993607;28;20030;-72
2021/12/21 05:09:38;;;;;;;15.02;10.02;;;;;;;1.93;100.00;101342.06;4993724;28;20030;-72
2021/12/21 05:12:24;;;;;;;14.07;10.00;;;;;;;1.91;100.00;101353.22;4981602;28;20447;-72
2021/12/21 05:15:10;;;;;;;14.00;9.95;;;;;;;2.00;100.00;101356.91;4993839;28;20030;-71
2021/12/21 05:17:56;;;;;;;13.80;9.57;;;;;;;1.88;100.00;101348.84;4981141;28;20042;-72
2021/12/21 05:20:42;;;;;;;14.07;9.93;;;;;;;1.75;100.00;101351.03;4979902;28;20465;-73
2021/12/21 05:23:28;;;;;;;14.73;9.70;;;;;;;1.85;100.00;101351.31;4999128;28;20026;-71
2021/12/21 05:26:17;;;;;;;14.75;9.70;;;;;;;1.65;100.00;101356.78;4998041;28;20023;-74
2021/12/21 05:29:04;;;;;;;16.05;10.48;;;;;;;1.75;100.00;101359.66;4997862;28;20037;-72
2021/12/21 05:31:50;;;;;;;14.52;10.10;;;;;;;1.69;100.00;101363.78;4985129;28;20089;-73
2021/12/21 05:34:36;;;;;;;15.20;10.48;;;;;;;1.96;100.00;101369.69;4983286;28;20026;-72
2021/12/21 05:37:23;;;;;;;14.13;9.90;;;;;;;2.08;100.00;101375.19;4998149;28;20030;-71
2021/12/21 05:40:17;;;;;;;14.82;10.32;;;;;;;1.83;100.00;101373.69;4998160;28;20030;-72
2021/12/21 05:43:04;;;;;;;14.95;10.20;;;;;;;2.02;100.00;101386.28;4998105;28;20363;-73
2021/12/21 05:45:50;;;;;;;15.65;10.13;;;;;;;1.87;100.00;101388.44;4997348;28;20447;-71
2021/12/21 05:48:35;;;;;;;14.90;10.32;;;;;;;2.05;100.00;101386.34;4984751;28;20118;-72
2021/12/21 05:51:21;;;;;;;14.65;9.88;;;;;;;2.13;100.00;101387.41;4999357;28;20040;-72
2021/12/21 05:54:07;;;;;;;16.88;9.60;;;;;;;2.07;100.00;101394.13;4998941;28;20036;-71
2021/12/21 05:56:53;;;;;;;15.27;10.45;;;;;;;2.41;100.00;101397.66;4997833;28;20045;-72
2021/12/21 05:59:38;;;;;;;15.80;11.15;;;;;;;2.72;100.00;101405.34;4998014;28;20053;-72
2021/12/21 06:02:24;;;;;;;14.18;10.02;;;;;;;2.40;100.00;101411.44;4998555;28;20026;-74
2021/12/21 06:05:10;;;;;;;18.95;12.05;;;;;;;2.48;100.00;101411.59;4998153;28;20018;-72
2021/12/21 06:07:56;;;;;;;15.43;10.30;;;;;;;2.06;100.00;101406.19;4998061;28;20053;-74
2021/12/21 06:10:43;;;;;;;12.65;9.77;;;;;;;2.70;100.00;101417.38;4997364;28;20108;-73
2021/12/21 06:22:46;;;;;;;15.15;10.13;;;;;;;2.78;100.00;101436.53;4995984;28;20042;-72
2021/12/21 06:28:18;;;;;;;15.75;10.98;;;;;;;2.65;100.00;101452.59;4997738;28;20081;-72
2021/12/21 06:31:04;;;;;;;14.05;10.57;;;;;;;2.45;100.00;101461.53;4997157;28;20026;-73
2021/12/21 06:33:50;;;;;;;16.10;11.40;;;;;;;2.50;100.00;101464.25;4997277;28;20097;-72
2021/12/21 06:36:36;;;;;;;16.35;11.30;;;;;;;2.36;100.00;101476.81;4996633;28;20083;-73
2021/12/21 06:39:22;;;;;;;15.07;11.18;;;;;;;2.38;100.00;101467.41;4995296;28;20403;-72
2021/12/21 06:42:08;;;;;;;17.38;10.88;;;;;;;2.56;100.00;101479.94;4996691;28;20423;-72
2021/12/21 06:44:58;;;;;;;16.63;11.13;;;;;;;2.34;100.00;101483.66;4997643;28;20037;-72
2021/12/21 06:53:55;;;;;;;14.48;10.65;;;;;;;2.61;100.00;101481.81;4995725;28;20073;-72
2021/12/21 06:56:41;;;;;;;13.10;9.63;;;;;;;2.79;100.00;101486.59;4995309;28;20342;-72
2021/12/21 06:59:27;;;;;;;14.77;10.27;;;;;;;2.74;100.00;101481.28;4996058;28;20101;-72
2021/12/21 07:02:13;;;;;;;14.13;10.15;;;;;;;2.86;100.00;101488.50;4995603;28;20031;-72
2021/12/21 07:05:00;;;;;;;13.73;9.68;;;;;;;3.00;100.00;101485.44;4996574;28;20038;-73
2021/12/21 07:07:46;;;;;;;13.35;9.73;;;;;;;2.65;100.00;101483.63;4996787;28;20022;-73
2021/12/21 07:10:33;;;;;;;16.50;10.52;;;;;;;2.52;100.00;101488.44;4995884;28;20030;-72
2021/12/21 07:19:28;;;;;;;17.15;11.02;;;;;;;2.94;100.00;101505.97;4995480;28;20026;-72
2021/12/21 07:22:14;;;;;;;16.17;10.23;;;;;;;3.16;100.00;101502.19;4981543;28;20058;-71
2021/12/21 07:24:59;;;;;;;19.25;10.90;;;;;;;3.60;100.00;101509.31;4996769;28;20034;-75
2021/12/21 07:27:45;;;;;;;16.33;10.23;;;;;;;3.27;100.00;101501.66;4997646;28;20470;-73
2021/12/21 07:30:31;;;;;;;14.10;9.90;;;;;;;3.20;100.00;101512.69;4996280;28;20027;-73
2021/12/21 07:33:17;;;;;;;13.10;9.90;;;;;;;3.19;100.00;101515.22;4995548;28;20026;-72
2021/12/21 07:36:03;;;;;;;16.33;9.98;;;;;;;3.01;100.00;101505.28;4996149;28;20447;-72
2021/12/21 07:38:48;;;;;;;14.32;9.45;;;;;;;3.26;100.00;101520.59;4983441;28;20153;-73
2021/12/21 07:41:34;;;;;;;13.68;9.85;;;;;;;3.26;100.00;101517.16;4996240;28;20053;-74
2021/12/21 07:44:20;;;;;;;12.90;8.32;;;;;;;3.28;100.00;101520.63;4995081;28;20172;-72
2021/12/21 07:47:06;;;;;;;14.60;9.60;;;;;;;3.08;100.00;101517.56;4995518;28;20464;-72
2021/12/21 07:49:52;;;;;;;15.00;10.15;;;;;;;3.33;100.00;101527.66;4996279;28;20523;-75
2021/12/21 07:52:38;;;;;;;14.02;9.88;;;;;;;3.34;100.00;101529.41;4995556;28;20041;-71
2021/12/21 07:55:24;;;;;;;14.43;9.75;;;;;;;3.19;100.00;101531.66;4995939;28;20022;-73
2021/12/21 07:58:11;;;;;;;17.67;10.82;;;;;;;3.42;100.00;101539.97;4994088;28;20030;-73
2021/12/21 08:00:58;;;;;;;15.77;9.93;;;;;;;3.60;100.00;101543.88;4996823;28;20045;-74
2021/12/21 08:03:44;;;;;;;15.30;10.27;;;;;;;3.34;100.00;101546.69;4995349;28;20034;-71
2021/12/21 08:06:32;;;;;;;13.65;9.60;;;;;;;3.45;100.00;101548.69;4982131;28;20045;-72
2021/12/21 08:09:18;;;;;;;14.38;9.82;;;;;;;3.38;100.00;101545.94;4994595;28;20022;-72
2021/12/21 08:15:00;;;;;;;14.18;9.80;;;;;;;3.86;100.00;101558.31;4994503;28;20037;-72
2021/12/21 08:17:46;;;;;;;15.57;9.80;;;;;;;3.56;100.00;101564.50;4995108;28;20022;-72
2021/12/21 08:20:32;;;;;;;14.35;9.57;;;;;;;3.61;100.00;101568.94;4981218;28;20030;-73
2021/12/21 08:23:18;;;;;;;16.30;10.20;;;;;;;3.64;100.00;101581.97;4995247;28;20094;-73
2021/12/21 08:26:05;;;;;;;12.95;9.80;;;;;;;3.98;100.00;101587.09;4994027;28;20403;-73
2021/12/21 08:28:51;;;;;;;14.48;9.63;;;;;;;4.13;100.00;101587.44;4981468;28;20054;-73
2021/12/21 08:31:37;;;;;;;14.43;10.13;;;;;;;4.17;100.00;101590.97;4981420;28;20034;-72
2021/12/21 08:34:23;;;;;;;15.25;9.82;;;;;;;3.71;100.00;101603.72;4995215;28;20348;-73
2021/12/21 08:37:09;;;;;;;14.50;9.90;;;;;;;3.64;100.00;101604.41;4981559;28;20023;-73
2021/12/21 08:39:55;;;;;;;14.10;10.10;;;;;;;3.57;100.00;101605.97;4995188;28;20109;-72
2021/12/21 08:42:45;;;;;;;20.50;11.75;;;;;;;4.20;100.00;101604.00;4995460;28;20041;-73
2021/12/21 08:45:32;;;;;;;18.63;10.13;;;;;;;3.81;100.00;101600.50;4995317;28;20046;-73
2021/12/21 08:48:19;;;;;;;15.10;9.38;;;;;;;3.76;100.00;101608.19;4975656;28;20416;-72
2021/12/21 08:51:05;;;;;;;14.27;9.77;;;;;;;3.71;100.00;101614.97;4976591;28;20023;-72
2021/12/21 08:53:51;;;;;;;17.15;10.60;;;;;;;3.98;100.00;101602.66;4975297;28;20109;-73
2021/12/21 08:56:37;;;;;;;17.27;10.70;;;;;;;4.27;100.00;101609.38;4979790;28;20093;-73
2021/12/21 08:59:23;;;;;;;14.27;10.38;;;;;;;3.98;100.00;101614.75;4981423;28;20038;-73
2021/12/21 09:02:09;;;;;;;17.05;10.02;;;;;;;3.84;100.00;101614.44;4981655;28;20031;-72
2021/12/21 09:04:55;;;;;;;15.25;10.77;;;;;;;3.67;100.00;101623.53;4967731;28;20065;-73
2021/12/21 09:07:48;;;;;;;16.77;11.18;;;;;;;3.67;100.00;101626.13;4981302;28;20034;-74
2021/12/21 09:10:35;;;;;;;15.85;11.07;;;;;;;4.02;100.00;101625.22;4981977;28;20171;-73
2021/12/21 09:13:20;;;;;;;18.02;11.70;;;;;;;4.11;100.00;101624.56;4982159;28;20027;-73
2021/12/21 09:16:09;;;;;;;14.93;10.02;;;;;;;4.16;100.00;101621.25;4967748;28;20038;-73
2021/12/21 09:18:55;;;;;;;18.48;11.48;;;;;;;3.72;100.00;101619.31;4981885;28;20027;-73
2021/12/21 09:21:41;;;;;;;16.05;10.85;;;;;;;3.72;100.00;101626.19;4981177;28;20112;-73
2021/12/21 09:24:29;;;;;;;14.82;10.35;;;;;;;3.86;100.00;101617.06;4981548;28;20026;-77
2021/12/21 09:27:16;;;;;;;14.45;9.95;;;;;;;3.88;100.00;101621.44;4981532;28;20449;-73
2021/12/21 09:30:04;;;;;;;15.38;10.63;;;;;;;3.37;100.00;101624.44;4982210;28;20041;-73
2021/12/21 09:32:51;;;;;;;16.17;10.70;;;;;;;3.61;100.00;101625.94;4981352;28;20071;-72
2021/12/21 09:35:37;;;;;;;15.65;10.77;;;;;;;3.39;100.00;101620.19;4981336;28;20371;-71
2021/12/21 09:38:23;;;;;;;16.98;10.93;;;;;;;3.60;100.00;101621.63;4981554;28;20471;-72
2021/12/21 09:41:08;;;;;;;18.40;10.13;;;;;;;3.62;100.00;101621.66;4981360;28;20062;-72
2021/12/21 09:43:54;;;;;;;16.02;11.05;;;;;;;3.88;100.00;101615.38;4967818;28;20364;-72
2021/12/21 09:46:40;;;;;;;18.42;11.05;;;;;;;4.59;100.00;101618.72;4988714;28;20054;-72
2021/12/21 09:49:26;;;;;;;20.42;12.02;;;;;;;4.45;100.00;101625.34;4986343;28;20030;-73
2021/12/21 09:52:13;;;;;;;16.88;10.93;;;;;;;3.98;100.00;101617.34;4986682;28;20033;-71
2021/12/21 09:55:01;;;;;;;18.83;11.85;;;;;;;4.08;100.00;101619.31;5001407;28;20116;-72
2021/12/21 09:57:49;;;;;;;15.32;10.93;;;;;;;3.95;100.00;101612.09;4999782;28;20034;-72
2021/12/21 10:00:35;;;;;;;17.80;11.23;;;;;;;4.50;100.00;101623.72;4986126;28;20026;-71
2021/12/21 10:03:20;;;;;;;17.77;11.60;;;;;;;4.04;100.00;101628.75;5000755;28;20045;-71
2021/12/21 10:06:12;;;;;;;16.60;11.65;;;;;;;4.25;100.00;101624.03;5000821;28;20040;-72
2021/12/21 10:09:06;;;;;;;19.08;11.25;;;;;;;4.67;100.00;101635.31;4997013;28;20089;-73
2021/12/21 10:11:53;;;;;;;16.25;10.43;;;;;;;4.09;100.00;101626.22;4997003;28;20068;-71
2021/12/21 10:14:39;;;;;;;15.18;11.32;;;;;;;4.58;100.00;101629.06;4997610;28;20030;-73
2021/12/21 10:17:25;;;;;;;19.77;11.88;;;;;;;4.49;100.00;101628.88;4997719;28;20022;-71
2021/12/21 10:20:12;;;;;;;19.65;13.02;;;;;;;4.88;100.00;101635.78;4997923;28;20026;-71
2021/12/21 10:22:59;;;;;;;21.02;13.35;;;;;;;4.96;100.00;101634.22;4995595;28;20019;-71
2021/12/21 10:26:00;;;;;;;21.88;13.82;;;;;;;3.86;100.00;101630.88;4996034;28;20030;-71
2021/12/21 10:29:05;;;;;;;31.08;15.65;;;;;;;3.86;100.00;101635.22;4996739;28;20038;-72
2021/12/21 10:31:51;;;;;;;22.15;10.68;;;;;;;2.94;100.00;101640.53;4998426;28;20096;-72
2021/12/21 10:34:37;;;;;;;45.63;13.32;;;;;;;2.80;100.00;101641.88;4997101;28;20030;-74
2021/12/21 10:37:36;;;;;;;48.42;15.48;;;;;;;2.93;100.00;101646.56;4996026;28;20503;-73
2021/12/21 10:40:26;;;;;;;30.45;11.80;;;;;;;2.48;100.00;101653.00;4997058;28;20132;-73
2021/12/21 10:43:13;;;;;;;27.42;11.10;;;;;;;2.63;100.00;101642.22;4996582;28;20161;-74
2021/12/21 10:45:59;;;;;;;25.05;10.73;;;;;;;2.07;100.00;101645.69;4995069;28;20038;-74
2021/12/21 10:48:46;;;;;;;31.92;12.93;;;;;;;2.10;100.00;101657.84;4996483;28;20062;-73
2021/12/21 10:51:32;;;;;;;23.98;12.15;;;;;;;1.66;100.00;101658.13;4997584;28;20120;-73
2021/12/21 10:54:31;;;;;;;18.40;11.15;;;;;;;1.73;100.00;101671.28;4997438;28;20042;-73
2021/12/21 10:57:29;;;;;;;18.83;9.82;;;;;;;2.37;100.00;101671.63;4996481;28;20097;-73
2021/12/21 11:00:16;;;;;;;16.42;8.90;;;;;;;2.19;100.00;101671.03;4996528;28;20026;-73
2021/12/21 11:03:02;;;;;;;14.48;9.55;;;;;;;2.60;100.00;101668.00;4996643;28;20045;-73
2021/12/21 11:05:48;;;;;;;21.48;12.02;;;;;;;2.40;100.00;101664.81;4982347;28;20077;-73
2021/12/21 11:08:38;;;;;;;20.08;12.00;;;;;;;3.13;100.00;101667.84;4997362;28;20033;-73
2021/12/21 11:11:29;;;;;;;24.60;11.98;;;;;;;2.33;100.00;101670.63;4996221;28;20022;-74
2021/12/21 11:14:18;;;;;;;29.70;13.38;;;;;;;2.80;100.00;101672.03;4996968;28;20019;-74
2021/12/21 11:17:06;;;;;;;30.90;14.77;;;;;;;2.65;100.00;101669.88;4995744;28;20026;-73
2021/12/21 11:19:53;;;;;;;29.90;13.38;;;;;;;2.57;100.00;101680.88;4994847;28;20030;-73
2021/12/21 11:22:41;;;;;;;19.60;11.65;;;;;;;2.14;100.00;101676.09;4995644;28;20026;-73
2021/12/21 11:25:28;;;;;;;25.25;12.18;;;;;;;2.76;100.00;101680.53;4995903;28;20463;-73
2021/12/21 11:28:26;;;;;;;27.45;13.48;;;;;;;2.37;100.00;101685.41;4995463;28;20038;-73
2021/12/21 11:31:12;;;;;;;33.95;13.50;;;;;;;1.51;100.00;101683.41;4996179;28;20367;-73
2021/12/21 11:33:59;;;;;;;44.55;17.02;;;;;;;1.92;100.00;101681.38;4995259;28;20061;-73
2021/12/21 11:39:52;;;;;;;48.13;15.80;;;;;;;2.11;100.00;101690.59;4996576;28;20030;-74
2021/12/21 11:42:50;;;;;;;37.20;14.18;;;;;;;2.00;100.00;101690.25;4996906;28;20032;-73
2021/12/21 11:45:37;;;;;;;27.48;11.13;;;;;;;1.75;100.00;101686.81;4994271;28;20026;-73
2021/12/21 11:48:32;;;;;;;18.60;10.52;;;;;;;1.58;100.00;101688.84;4995379;28;20027;-73
2021/12/21 11:51:23;;;;;;;20.30;10.60;;;;;;;1.29;100.00;101692.13;4982097;28;20034;-74
2021/12/21 11:54:19;;;;;;;19.17;10.63;;;;;;;2.02;100.00;101685.16;4995407;28;20157;-71
2021/12/21 11:57:04;;;;;;;28.13;11.00;;;;;;;1.66;100.00;101682.25;4994373;28;20034;-73
2021/12/21 11:59:50;;;;;;;37.38;14.80;;;;;;;2.17;100.00;101689.09;4995385;28;20449;-73
2021/12/21 12:02:37;;;;;;;33.33;11.65;;;;;;;2.22;100.00;101695.31;4995745;28;20474;-72
2021/12/21 12:05:29;;;;;;;28.33;10.68;;;;;;;1.48;100.00;101694.53;4995432;28;20030;-73
2021/12/21 12:08:15;;;;;;;35.08;13.00;;;;;;;1.67;100.00;101686.56;4994187;28;20367;-73
2021/12/21 12:11:01;;;;;;;38.22;14.27;;;;;;;2.26;100.00;101683.34;4979763;28;20026;-72
2021/12/21 12:13:47;;;;;;;47.38;15.63;;;;;;;2.46;100.00;101679.66;4994922;28;20037;-73
2021/12/21 12:16:53;;;;;;;23.15;12.15;;;;;;;2.54;100.00;101681.66;4995266;28;20030;-73
2021/12/21 12:19:43;;;;;;;29.15;12.23;;;;;;;2.53;100.00;101686.78;4994266;28;20170;-74
2021/12/21 12:22:38;;;;;;;30.65;13.38;;;;;;;3.35;100.00;101684.00;4995143;28;20474;-73
2021/12/21 12:25:26;;;;;;;26.98;11.93;;;;;;;2.76;100.00;101681.44;4995363;28;20049;-73
2021/12/21 12:28:21;;;;;;;25.63;11.98;;;;;;;2.23;100.00;101684.13;4980753;28;20026;-73
2021/12/21 12:31:07;;;;;;;32.38;13.88;;;;;;;2.63;100.00;101687.09;4994780;28;20022;-73
2021/12/21 12:33:53;;;;;;;31.38;14.13;;;;;;;2.89;100.00;101688.72;4994925;28;20098;-74
2021/12/21 12:36:49;;;;;;;50.65;16.67;;;;;;;2.75;100.00;101691.75;4993362;28;20062;-71
2021/12/21 12:39:45;;;;;;;44.00;15.20;;;;;;;2.72;100.00;101689.94;4981213;28;20098;-72
2021/12/21 12:42:32;;;;;;;30.40;13.85;;;;;;;2.04;100.00;101689.53;4994148;28;20022;-74
2021/12/21 12:45:20;;;;;;;33.30;14.38;;;;;;;2.42;100.00;101698.50;4994736;28;20105;-73
2021/12/21 12:48:32;;;;;;;41.25;17.27;;;;;;;2.99;100.00;101687.28;4980860;28;20050;-73
2021/12/21 12:51:30;;;;;;;30.90;15.15;;;;;;;3.49;100.00;101693.00;4994414;28;20415;-73
2021/12/21 12:54:18;;;;;;;45.08;19.10;;;;;;;3.70;100.00;101698.72;4995046;28;20348;-74
2021/12/21 12:57:04;;;;;;;37.17;14.38;;;;;;;3.30;100.00;101705.41;4993205;28;20030;-73
2021/12/21 12:59:55;;;;;;;45.35;16.27;;;;;;;2.72;100.00;101696.81;4993022;28;20034;-73
2021/12/21 13:02:59;;;;;;;36.35;15.18;;;;;;;2.44;100.00;101702.00;4994588;28;20038;-73
2021/12/21 13:05:52;;;;;;;43.17;15.45;;;;;;;2.65;100.00;101697.50;4980987;28;20117;-72
2021/12/21 13:08:39;;;;;;;50.03;15.27;;;;;;;1.84;100.00;101707.81;4993098;28;20380;-73
2021/12/21 13:11:31;;;;;;;35.47;17.02;;;;;;;2.20;100.00;101714.16;4979856;28;20030;-72
2021/12/21 13:14:17;;;;;;;30.08;13.85;;;;;;;2.22;100.00;101713.41;4994383;28;20066;-72
2021/12/21 13:17:03;;;;;;;26.60;12.15;;;;;;;1.98;100.00;101719.47;4994619;28;20041;-73
2021/12/21 13:19:49;;;;;;;43.97;23.17;;;;;;;2.53;100.00;101720.41;4994708;28;20030;-72
2021/12/21 13:22:35;;;;;;;33.28;15.65;;;;;;;2.98;100.00;101727.78;4993812;28;20048;-73
2021/12/21 13:25:21;;;;;;;30.77;14.43;;;;;;;2.57;100.00;101733.44;4980509;28;20022;-73
2021/12/21 13:28:12;;;;;;;26.52;13.82;;;;;;;2.43;100.00;101737.34;4980898;28;20083;-73
2021/12/21 13:31:04;;;;;;;33.13;17.70;;;;;;;2.16;100.00;101743.31;4995173;28;20026;-74
2021/12/21 13:33:53;;;;;;;53.80;32.38;;;;;;;2.50;100.00;101749.63;4980500;28;20018;-72
2021/12/21 13:36:43;;;;;;;25.35;16.05;;;;;;;2.25;100.00;101746.22;4993099;28;20026;-71
2021/12/21 13:39:32;;;;;;;44.85;25.40;;;;;;;2.46;100.00;101747.78;4993967;28;20034;-73
2021/12/21 13:42:21;;;;;;;36.67;19.20;;;;;;;2.82;100.00;101751.47;4994686;28;20388;-72
2021/12/21 13:45:16;;;;;;;35.53;20.85;;;;;;;2.81;100.00;101767.84;4998337;28;20034;-73
2021/12/21 13:48:02;;;;;;;33.33;16.48;;;;;;;2.81;100.00;101757.47;4986415;28;20474;-71
2021/12/21 13:50:57;;;;;;;24.98;13.70;;;;;;;2.60;100.00;101755.94;4987937;28;20037;-72
2021/12/21 13:53:52;;;;;;;24.10;13.82;;;;;;;2.71;100.00;101758.06;5000919;28;20037;-72
2021/12/21 13:56:42;;;;;;;26.35;14.65;;;;;;;3.21;100.00;101768.16;4984470;28;20538;-71
2021/12/21 13:59:27;;;;;;;43.05;18.83;;;;;;;3.17;100.00;101771.50;4985253;28;20375;-71